Aeroporto :
LOGIN :

Iscrizione | Disclaimer

   EN    FR    IT 

 










Sommario :    VFR   VFR Marginale   IFR   IFR Intensivo   IFR Molto Intensivo
Visibilità : 
Base nubi : 
>= 8 km
>= 3000ft
5 / 8 km
1000 / 3000 ft
1500m / 5 km
500 / 1000 ft
800 / 1500m
200 / 500 ft
< 800m
< 200 ft
Simboli :   Temporali  Nebbia  Neve Forte  Precipitazioni Forti  Vento > 20 kt
SIGMETs :   Varie  Temporali  Ghiacco  Turbolenza  Onda orograficha  Ceneri Vulcaniche







- Altitudine del aeroporto : 226 ft
- Codice IATA : BEX


EGUB - RAF Benson

ULTIMO METAR :
  • 191150Z 24011KT 9999 BKN025 22/14 Q1023 BLU NOSIG

METARs OBSOLETI :
  • 191050Z 23009KT 9999 BKN025 21/14 Q1023 BLU NOSIG
  • 190950Z 24010KT 9999 BKN022 SCT035 21/14 Q1023 WHT BECMG SCT025 BLU

TAF TAF EGUB
Valido dal 19 a 12 ore il 19 a 20 ore UTC


191044Z 1912/1920 25012KT 9999 SCT025
PROB40 1912/1920 SCT022
ATIS : +44 1491-837766 (x7524)
Nessun NOTAM noto per questo aeroporto.



MetMap, La meteo Aeronautica in un colpo d'occhio ! - Copyright ORBIFLY Dicembre 2007 - Disclaimer

ORBIFLY MET'MAP TEAM :

Programmazione e sviluppo : Alexandra Zaïnal
Concezione e sviluppo : Baudouin d'Aumeries
Co-Programmazione e sviluppo : Marc-Olivier Méhu
Supporto tecnico e logistico : Manuel Goepfert
Aiuto per la traduzione : Arnaldo La Scala

Contatto : metmap@orbifly.com




FONTI E CREDITI :

   NOAA